sensor_id;sensor_type;location;lat;lon;timestamp;P1;durP1;ratioP1;P2;durP2;ratioP2
40453;SDS011;26160;51.858;4.398;2024-01-30T00:01:33;16.23;;;11.13;;
40453;SDS011;26160;51.858;4.398;2024-01-30T00:04:14;19.38;;;12.60;;
40453;SDS011;26160;51.858;4.398;2024-01-30T00:07:04;17.27;;;10.67;;
40453;SDS011;26160;51.858;4.398;2024-01-30T00:09:53;14.73;;;11.43;;
40453;SDS011;26160;51.858;4.398;2024-01-30T00:15:08;16.53;;;12.33;;
40453;SDS011;26160;51.858;4.398;2024-01-30T00:17:51;17.10;;;11.03;;
40453;SDS011;26160;51.858;4.398;2024-01-30T00:28:36;14.43;;;9.83;;
40453;SDS011;26160;51.858;4.398;2024-01-30T00:40:35;16.33;;;10.60;;
40453;SDS011;26160;51.858;4.398;2024-01-30T00:46:01;14.60;;;9.83;;
40453;SDS011;26160;51.858;4.398;2024-01-30T00:48:36;15.97;;;9.97;;
40453;SDS011;26160;51.858;4.398;2024-01-30T00:51:19;12.80;;;10.03;;
40453;SDS011;26160;51.858;4.398;2024-01-30T00:53:49;13.53;;;9.47;;
40453;SDS011;26160;51.858;4.398;2024-01-30T01:16:37;12.77;;;9.60;;
40453;SDS011;26160;51.858;4.398;2024-01-30T01:29:57;14.00;;;9.77;;
40453;SDS011;26160;51.858;4.398;2024-01-30T01:32:38;13.37;;;10.00;;
40453;SDS011;26160;51.858;4.398;2024-01-30T01:38:06;13.03;;;8.90;;
40453;SDS011;26160;51.858;4.398;2024-01-30T01:47:00;12.83;;;8.83;;
40453;SDS011;26160;51.858;4.398;2024-01-30T01:58:42;13.30;;;8.90;;
40453;SDS011;26160;51.858;4.398;2024-01-30T02:04:06;16.67;;;10.13;;
40453;SDS011;26160;51.858;4.398;2024-01-30T02:06:34;11.43;;;9.20;;
40453;SDS011;26160;51.858;4.398;2024-01-30T02:09:03;11.40;;;9.40;;
40453;SDS011;26160;51.858;4.398;2024-01-30T02:11:30;11.93;;;9.40;;
40453;SDS011;26160;51.858;4.398;2024-01-30T02:13:57;14.93;;;8.53;;
40453;SDS011;26160;51.858;4.398;2024-01-30T02:16:30;13.53;;;8.87;;
40453;SDS011;26160;51.858;4.398;2024-01-30T02:21:33;12.57;;;8.87;;
40453;SDS011;26160;51.858;4.398;2024-01-30T02:23:59;13.93;;;9.63;;
40453;SDS011;26160;51.858;4.398;2024-01-30T02:26:35;12.07;;;8.93;;
40453;SDS011;26160;51.858;4.398;2024-01-30T02:29:01;15.07;;;9.13;;
40453;SDS011;26160;51.858;4.398;2024-01-30T02:31:30;11.53;;;8.60;;
40453;SDS011;26160;51.858;4.398;2024-01-30T02:33:57;12.07;;;9.60;;
40453;SDS011;26160;51.858;4.398;2024-01-30T02:36:24;10.30;;;8.60;;
40453;SDS011;26160;51.858;4.398;2024-01-30T02:38:58;13.83;;;9.53;;
40453;SDS011;26160;51.858;4.398;2024-01-30T02:41:24;12.40;;;8.73;;
40453;SDS011;26160;51.858;4.398;2024-01-30T02:43:55;13.67;;;9.70;;
40453;SDS011;26160;51.858;4.398;2024-01-30T02:46:21;15.80;;;9.07;;
40453;SDS011;26160;51.858;4.398;2024-01-30T02:48:51;14.27;;;9.50;;
40453;SDS011;26160;51.858;4.398;2024-01-30T02:51:17;13.33;;;9.50;;
40453;SDS011;26160;51.858;4.398;2024-01-30T02:53:47;13.17;;;8.77;;
40453;SDS011;26160;51.858;4.398;2024-01-30T02:59:16;14.20;;;9.40;;
40453;SDS011;26160;51.858;4.398;2024-01-30T03:01:43;13.23;;;9.10;;
40453;SDS011;26160;51.858;4.398;2024-01-30T03:04:10;13.47;;;9.67;;
40453;SDS011;26160;51.858;4.398;2024-01-30T03:06:37;14.17;;;9.47;;
40453;SDS011;26160;51.858;4.398;2024-01-30T03:09:03;14.17;;;9.80;;
40453;SDS011;26160;51.858;4.398;2024-01-30T03:11:30;12.83;;;9.47;;
40453;SDS011;26160;51.858;4.398;2024-01-30T03:13:57;13.33;;;9.37;;
40453;SDS011;26160;51.858;4.398;2024-01-30T03:16:30;12.07;;;9.57;;
40453;SDS011;26160;51.858;4.398;2024-01-30T03:19:01;10.77;;;8.70;;
40453;SDS011;26160;51.858;4.398;2024-01-30T03:21:30;13.67;;;9.67;;
40453;SDS011;26160;51.858;4.398;2024-01-30T03:23:58;11.73;;;9.17;;
40453;SDS011;26160;51.858;4.398;2024-01-30T03:26:25;13.67;;;8.77;;
40453;SDS011;26160;51.858;4.398;2024-01-30T03:28:51;11.77;;;8.67;;
40453;SDS011;26160;51.858;4.398;2024-01-30T03:31:17;12.57;;;9.33;;
40453;SDS011;26160;51.858;4.398;2024-01-30T03:33:44;10.57;;;9.00;;
40453;SDS011;26160;51.858;4.398;2024-01-30T03:36:10;15.90;;;9.37;;
40453;SDS011;26160;51.858;4.398;2024-01-30T03:38:37;11.83;;;8.97;;
40453;SDS011;26160;51.858;4.398;2024-01-30T03:41:07;12.67;;;9.83;;
40453;SDS011;26160;51.858;4.398;2024-01-30T03:43:34;14.67;;;9.67;;
40453;SDS011;26160;51.858;4.398;2024-01-30T03:46:01;15.03;;;9.47;;
40453;SDS011;26160;51.858;4.398;2024-01-30T03:48:28;13.73;;;10.57;;
40453;SDS011;26160;51.858;4.398;2024-01-30T03:50:55;13.03;;;8.90;;
40453;SDS011;26160;51.858;4.398;2024-01-30T03:53:21;14.83;;;9.63;;
40453;SDS011;26160;51.858;4.398;2024-01-30T03:55:48;13.23;;;9.13;;
40453;SDS011;26160;51.858;4.398;2024-01-30T03:58:14;12.03;;;9.17;;
40453;SDS011;26160;51.858;4.398;2024-01-30T04:00:42;13.07;;;9.67;;
40453;SDS011;26160;51.858;4.398;2024-01-30T04:03:08;14.47;;;10.23;;
40453;SDS011;26160;51.858;4.398;2024-01-30T04:05:34;15.73;;;10.83;;
40453;SDS011;26160;51.858;4.398;2024-01-30T04:08:01;12.53;;;10.00;;
40453;SDS011;26160;51.858;4.398;2024-01-30T04:10:27;13.87;;;10.17;;
40453;SDS011;26160;51.858;4.398;2024-01-30T04:12:57;11.37;;;9.20;;
40453;SDS011;26160;51.858;4.398;2024-01-30T04:15:23;15.50;;;9.67;;
40453;SDS011;26160;51.858;4.398;2024-01-30T04:17:49;12.30;;;9.10;;
40453;SDS011;26160;51.858;4.398;2024-01-30T04:20:16;12.77;;;9.53;;
40453;SDS011;26160;51.858;4.398;2024-01-30T04:22:43;13.43;;;9.57;;
40453;SDS011;26160;51.858;4.398;2024-01-30T04:25:10;14.07;;;9.67;;
40453;SDS011;26160;51.858;4.398;2024-01-30T04:27:49;12.27;;;9.83;;
40453;SDS011;26160;51.858;4.398;2024-01-30T04:30:15;12.77;;;9.83;;
40453;SDS011;26160;51.858;4.398;2024-01-30T04:32:42;12.40;;;9.50;;
40453;SDS011;26160;51.858;4.398;2024-01-30T04:35:09;17.30;;;9.80;;
40453;SDS011;26160;51.858;4.398;2024-01-30T04:37:35;13.73;;;9.47;;
40453;SDS011;26160;51.858;4.398;2024-01-30T04:40:06;11.40;;;8.87;;
40453;SDS011;26160;51.858;4.398;2024-01-30T04:42:35;14.90;;;9.33;;
40453;SDS011;26160;51.858;4.398;2024-01-30T04:45:02;15.97;;;10.37;;
40453;SDS011;26160;51.858;4.398;2024-01-30T04:47:28;15.73;;;10.23;;
40453;SDS011;26160;51.858;4.398;2024-01-30T04:49:55;14.57;;;9.17;;
40453;SDS011;26160;51.858;4.398;2024-01-30T04:52:21;11.00;;;8.70;;
40453;SDS011;26160;51.858;4.398;2024-01-30T04:54:47;15.03;;;9.60;;
40453;SDS011;26160;51.858;4.398;2024-01-30T04:57:13;12.90;;;9.40;;
40453;SDS011;26160;51.858;4.398;2024-01-30T04:59:40;10.93;;;8.83;;
40453;SDS011;26160;51.858;4.398;2024-01-30T05:02:06;13.52;;;9.30;;
40453;SDS011;26160;51.858;4.398;2024-01-30T05:04:33;16.43;;;10.07;;
40453;SDS011;26160;51.858;4.398;2024-01-30T05:06:59;10.95;;;8.80;;
40453;SDS011;26160;51.858;4.398;2024-01-30T05:09:25;11.80;;;8.87;;
40453;SDS011;26160;51.858;4.398;2024-01-30T05:11:55;12.70;;;9.23;;
40453;SDS011;26160;51.858;4.398;2024-01-30T05:14:21;11.03;;;8.30;;
40453;SDS011;26160;51.858;4.398;2024-01-30T05:16:47;14.77;;;9.40;;
40453;SDS011;26160;51.858;4.398;2024-01-30T05:19:13;13.27;;;10.07;;
40453;SDS011;26160;51.858;4.398;2024-01-30T05:21:40;13.33;;;8.73;;
40453;SDS011;26160;51.858;4.398;2024-01-30T05:24:07;15.93;;;9.40;;
40453;SDS011;26160;51.858;4.398;2024-01-30T05:26:35;12.87;;;9.47;;
40453;SDS011;26160;51.858;4.398;2024-01-30T05:29:02;15.47;;;9.47;;
40453;SDS011;26160;51.858;4.398;2024-01-30T05:31:28;10.90;;;8.50;;
40453;SDS011;26160;51.858;4.398;2024-01-30T05:33:54;14.43;;;9.00;;
40453;SDS011;26160;51.858;4.398;2024-01-30T05:36:21;13.53;;;9.10;;
40453;SDS011;26160;51.858;4.398;2024-01-30T05:38:47;13.90;;;8.83;;
40453;SDS011;26160;51.858;4.398;2024-01-30T05:41:13;12.67;;;8.37;;
40453;SDS011;26160;51.858;4.398;2024-01-30T05:43:39;14.53;;;9.20;;
40453;SDS011;26160;51.858;4.398;2024-01-30T05:46:06;18.13;;;10.03;;
40453;SDS011;26160;51.858;4.398;2024-01-30T05:48:32;15.13;;;9.17;;
40453;SDS011;26160;51.858;4.398;2024-01-30T05:51:01;12.60;;;9.27;;
40453;SDS011;26160;51.858;4.398;2024-01-30T05:53:28;13.00;;;8.90;;
40453;SDS011;26160;51.858;4.398;2024-01-30T05:55:54;13.13;;;9.23;;
40453;SDS011;26160;51.858;4.398;2024-01-30T05:58:20;11.40;;;8.50;;
40453;SDS011;26160;51.858;4.398;2024-01-30T06:00:47;14.33;;;9.80;;
40453;SDS011;26160;51.858;4.398;2024-01-30T06:03:14;11.90;;;8.80;;
40453;SDS011;26160;51.858;4.398;2024-01-30T06:05:43;11.10;;;8.80;;
40453;SDS011;26160;51.858;4.398;2024-01-30T06:08:09;14.40;;;8.37;;
40453;SDS011;26160;51.858;4.398;2024-01-30T06:13:50;16.90;;;9.53;;
40453;SDS011;26160;51.858;4.398;2024-01-30T06:16:16;18.33;;;9.20;;
40453;SDS011;26160;51.858;4.398;2024-01-30T06:18:42;15.50;;;9.03;;
40453;SDS011;26160;51.858;4.398;2024-01-30T06:21:08;14.57;;;8.83;;
40453;SDS011;26160;51.858;4.398;2024-01-30T06:23:36;17.00;;;9.43;;
40453;SDS011;26160;51.858;4.398;2024-01-30T06:26:03;13.83;;;9.00;;
40453;SDS011;26160;51.858;4.398;2024-01-30T06:28:33;14.90;;;9.77;;
40453;SDS011;26160;51.858;4.398;2024-01-30T06:33:31;13.83;;;8.80;;
40453;SDS011;26160;51.858;4.398;2024-01-30T06:35:57;16.80;;;9.33;;
40453;SDS011;26160;51.858;4.398;2024-01-30T06:38:23;13.23;;;8.47;;
40453;SDS011;26160;51.858;4.398;2024-01-30T06:40:49;14.17;;;9.07;;
40453;SDS011;26160;51.858;4.398;2024-01-30T06:43:18;17.73;;;8.57;;
40453;SDS011;26160;51.858;4.398;2024-01-30T06:45:47;17.02;;;9.68;;
40453;SDS011;26160;51.858;4.398;2024-01-30T06:48:13;20.23;;;9.47;;
40453;SDS011;26160;51.858;4.398;2024-01-30T06:50:40;17.93;;;8.90;;
40453;SDS011;26160;51.858;4.398;2024-01-30T06:53:06;20.43;;;9.43;;
40453;SDS011;26160;51.858;4.398;2024-01-30T06:55:32;13.23;;;8.10;;
40453;SDS011;26160;51.858;4.398;2024-01-30T06:57:58;15.13;;;9.27;;
40453;SDS011;26160;51.858;4.398;2024-01-30T07:00:24;13.53;;;9.23;;
40453;SDS011;26160;51.858;4.398;2024-01-30T07:02:51;18.20;;;9.13;;
40453;SDS011;26160;51.858;4.398;2024-01-30T07:05:17;14.27;;;9.17;;
40453;SDS011;26160;51.858;4.398;2024-01-30T07:12:55;13.00;;;8.07;;
40453;SDS011;26160;51.858;4.398;2024-01-30T07:15:21;14.00;;;9.00;;
40453;SDS011;26160;51.858;4.398;2024-01-30T07:17:47;15.43;;;9.47;;
40453;SDS011;26160;51.858;4.398;2024-01-30T07:20:13;16.85;;;9.35;;
40453;SDS011;26160;51.858;4.398;2024-01-30T07:22:40;12.63;;;8.93;;
40453;SDS011;26160;51.858;4.398;2024-01-30T07:25:06;14.65;;;9.18;;
40453;SDS011;26160;51.858;4.398;2024-01-30T07:27:32;16.65;;;9.23;;
40453;SDS011;26160;51.858;4.398;2024-01-30T07:29:59;16.30;;;9.30;;
40453;SDS011;26160;51.858;4.398;2024-01-30T07:32:25;12.63;;;8.67;;
40453;SDS011;26160;51.858;4.398;2024-01-30T07:34:51;13.17;;;9.33;;
40453;SDS011;26160;51.858;4.398;2024-01-30T07:37:17;16.73;;;8.53;;
40453;SDS011;26160;51.858;4.398;2024-01-30T07:39:43;14.57;;;9.40;;
40453;SDS011;26160;51.858;4.398;2024-01-30T07:42:09;12.63;;;9.03;;
40453;SDS011;26160;51.858;4.398;2024-01-30T07:44:35;19.33;;;10.23;;
40453;SDS011;26160;51.858;4.398;2024-01-30T07:47:02;16.42;;;9.35;;
40453;SDS011;26160;51.858;4.398;2024-01-30T07:49:28;17.77;;;9.43;;
40453;SDS011;26160;51.858;4.398;2024-01-30T07:51:54;14.20;;;8.70;;
40453;SDS011;26160;51.858;4.398;2024-01-30T07:54:20;20.63;;;9.60;;
40453;SDS011;26160;51.858;4.398;2024-01-30T07:56:46;18.13;;;8.87;;
40453;SDS011;26160;51.858;4.398;2024-01-30T07:59:13;18.15;;;9.50;;
40453;SDS011;26160;51.858;4.398;2024-01-30T08:01:39;16.35;;;8.50;;
40453;SDS011;26160;51.858;4.398;2024-01-30T08:04:05;14.00;;;8.70;;
40453;SDS011;26160;51.858;4.398;2024-01-30T08:06:32;14.68;;;9.15;;
40453;SDS011;26160;51.858;4.398;2024-01-30T08:08:58;14.97;;;8.90;;
40453;SDS011;26160;51.858;4.398;2024-01-30T08:11:25;15.83;;;9.23;;
40453;SDS011;26160;51.858;4.398;2024-01-30T08:13:52;14.27;;;8.03;;
40453;SDS011;26160;51.858;4.398;2024-01-30T08:16:19;14.23;;;8.90;;
40453;SDS011;26160;51.858;4.398;2024-01-30T08:18:45;18.85;;;9.07;;
40453;SDS011;26160;51.858;4.398;2024-01-30T08:21:11;14.93;;;8.50;;
40453;SDS011;26160;51.858;4.398;2024-01-30T08:23:40;15.27;;;8.40;;
40453;SDS011;26160;51.858;4.398;2024-01-30T08:26:06;16.00;;;9.07;;
40453;SDS011;26160;51.858;4.398;2024-01-30T08:28:33;21.35;;;10.02;;
40453;SDS011;26160;51.858;4.398;2024-01-30T08:30:59;19.27;;;9.20;;
40453;SDS011;26160;51.858;4.398;2024-01-30T08:33:25;13.98;;;8.40;;
40453;SDS011;26160;51.858;4.398;2024-01-30T08:35:51;17.40;;;10.30;;
40453;SDS011;26160;51.858;4.398;2024-01-30T08:38:18;12.47;;;9.03;;
40453;SDS011;26160;51.858;4.398;2024-01-30T08:40:44;15.65;;;9.48;;
40453;SDS011;26160;51.858;4.398;2024-01-30T08:43:10;20.03;;;9.20;;
40453;SDS011;26160;51.858;4.398;2024-01-30T08:45:37;14.43;;;9.00;;
40453;SDS011;26160;51.858;4.398;2024-01-30T08:48:03;13.43;;;8.82;;
40453;SDS011;26160;51.858;4.398;2024-01-30T08:50:30;15.60;;;9.47;;
40453;SDS011;26160;51.858;4.398;2024-01-30T08:52:56;15.63;;;9.38;;
40453;SDS011;26160;51.858;4.398;2024-01-30T08:55:22;16.20;;;9.05;;
40453;SDS011;26160;51.858;4.398;2024-01-30T08:57:48;15.70;;;9.70;;
40453;SDS011;26160;51.858;4.398;2024-01-30T09:00:15;16.45;;;8.23;;
40453;SDS011;26160;51.858;4.398;2024-01-30T09:02:41;13.73;;;9.38;;
40453;SDS011;26160;51.858;4.398;2024-01-30T09:05:08;14.27;;;9.02;;
40453;SDS011;26160;51.858;4.398;2024-01-30T09:07:34;16.52;;;8.80;;
40453;SDS011;26160;51.858;4.398;2024-01-30T09:10:00;14.20;;;9.77;;
40453;SDS011;26160;51.858;4.398;2024-01-30T09:12:26;20.23;;;8.68;;
40453;SDS011;26160;51.858;4.398;2024-01-30T09:14:52;15.25;;;9.23;;
40453;SDS011;26160;51.858;4.398;2024-01-30T09:17:18;15.80;;;8.65;;
40453;SDS011;26160;51.858;4.398;2024-01-30T09:19:45;15.38;;;9.38;;
40453;SDS011;26160;51.858;4.398;2024-01-30T09:22:12;13.88;;;9.20;;
40453;SDS011;26160;51.858;4.398;2024-01-30T09:24:38;12.30;;;8.93;;
40453;SDS011;26160;51.858;4.398;2024-01-30T09:27:05;16.27;;;9.27;;
40453;SDS011;26160;51.858;4.398;2024-01-30T09:29:31;15.40;;;8.57;;
40453;SDS011;26160;51.858;4.398;2024-01-30T09:32:05;15.05;;;9.32;;
40453;SDS011;26160;51.858;4.398;2024-01-30T09:37:00;16.90;;;8.60;;
40453;SDS011;26160;51.858;4.398;2024-01-30T09:39:30;12.90;;;9.10;;
40453;SDS011;26160;51.858;4.398;2024-01-30T09:42:18;14.73;;;9.43;;
40453;SDS011;26160;51.858;4.398;2024-01-30T09:44:55;18.52;;;8.43;;
40453;SDS011;26160;51.858;4.398;2024-01-30T09:47:22;15.32;;;9.13;;
40453;SDS011;26160;51.858;4.398;2024-01-30T09:49:54;12.10;;;8.52;;
40453;SDS011;26160;51.858;4.398;2024-01-30T09:52:22;17.33;;;8.63;;
40453;SDS011;26160;51.858;4.398;2024-01-30T09:54:51;16.75;;;7.63;;
40453;SDS011;26160;51.858;4.398;2024-01-30T09:57:18;11.32;;;6.28;;
40453;SDS011;26160;51.858;4.398;2024-01-30T09:59:44;13.93;;;6.90;;
40453;SDS011;26160;51.858;4.398;2024-01-30T10:02:10;16.20;;;6.65;;
40453;SDS011;26160;51.858;4.398;2024-01-30T10:04:37;14.52;;;5.95;;
40453;SDS011;26160;51.858;4.398;2024-01-30T10:07:03;17.45;;;3.95;;
40453;SDS011;26160;51.858;4.398;2024-01-30T10:09:31;11.50;;;3.42;;
40453;SDS011;26160;51.858;4.398;2024-01-30T10:11:59;6.90;;;2.72;;
40453;SDS011;26160;51.858;4.398;2024-01-30T10:14:25;15.70;;;3.13;;
40453;SDS011;26160;51.858;4.398;2024-01-30T10:16:52;14.48;;;3.17;;
40453;SDS011;26160;51.858;4.398;2024-01-30T10:19:18;10.30;;;2.28;;
40453;SDS011;26160;51.858;4.398;2024-01-30T10:21:45;11.13;;;2.33;;
40453;SDS011;26160;51.858;4.398;2024-01-30T10:24:12;8.57;;;2.35;;
40453;SDS011;26160;51.858;4.398;2024-01-30T10:26:39;8.80;;;2.42;;
40453;SDS011;26160;51.858;4.398;2024-01-30T10:29:05;7.00;;;1.83;;
40453;SDS011;26160;51.858;4.398;2024-01-30T10:31:32;9.15;;;2.00;;
40453;SDS011;26160;51.858;4.398;2024-01-30T10:33:58;7.25;;;2.25;;
40453;SDS011;26160;51.858;4.398;2024-01-30T10:36:26;13.27;;;2.50;;
40453;SDS011;26160;51.858;4.398;2024-01-30T10:38:55;7.40;;;3.15;;
40453;SDS011;26160;51.858;4.398;2024-01-30T10:41:26;6.07;;;2.50;;
40453;SDS011;26160;51.858;4.398;2024-01-30T10:44:11;4.87;;;2.33;;
40453;SDS011;26160;51.858;4.398;2024-01-30T10:46:38;11.67;;;2.27;;
40453;SDS011;26160;51.858;4.398;2024-01-30T10:49:06;7.03;;;2.30;;
40453;SDS011;26160;51.858;4.398;2024-01-30T10:51:33;8.33;;;2.27;;
40453;SDS011;26160;51.858;4.398;2024-01-30T10:54:02;5.83;;;1.97;;
40453;SDS011;26160;51.858;4.398;2024-01-30T10:56:30;5.33;;;1.73;;
40453;SDS011;26160;51.858;4.398;2024-01-30T10:58:59;5.63;;;1.70;;
40453;SDS011;26160;51.858;4.398;2024-01-30T11:01:25;7.67;;;1.90;;
40453;SDS011;26160;51.858;4.398;2024-01-30T11:03:53;8.37;;;2.03;;
40453;SDS011;26160;51.858;4.398;2024-01-30T11:06:22;7.10;;;1.83;;
40453;SDS011;26160;51.858;4.398;2024-01-30T11:09:04;7.90;;;1.80;;
40453;SDS011;26160;51.858;4.398;2024-01-30T11:11:51;13.90;;;2.20;;
40453;SDS011;26160;51.858;4.398;2024-01-30T11:14:31;8.40;;;1.73;;
40453;SDS011;26160;51.858;4.398;2024-01-30T11:16:58;7.93;;;1.50;;
40453;SDS011;26160;51.858;4.398;2024-01-30T11:19:25;6.23;;;1.40;;
40453;SDS011;26160;51.858;4.398;2024-01-30T11:21:55;12.53;;;1.87;;
40453;SDS011;26160;51.858;4.398;2024-01-30T11:24:24;10.23;;;1.70;;
40453;SDS011;26160;51.858;4.398;2024-01-30T11:26:56;8.57;;;1.37;;
40453;SDS011;26160;51.858;4.398;2024-01-30T11:29:29;9.30;;;1.87;;
40453;SDS011;26160;51.858;4.398;2024-01-30T11:31:58;7.78;;;1.38;;
40453;SDS011;26160;51.858;4.398;2024-01-30T11:34:24;8.17;;;1.20;;
40453;SDS011;26160;51.858;4.398;2024-01-30T11:36:57;8.43;;;1.37;;
40453;SDS011;26160;51.858;4.398;2024-01-30T11:39:26;7.07;;;0.87;;
40453;SDS011;26160;51.858;4.398;2024-01-30T11:41:52;4.97;;;0.80;;
40453;SDS011;26160;51.858;4.398;2024-01-30T11:44:19;5.80;;;0.87;;
40453;SDS011;26160;51.858;4.398;2024-01-30T11:46:47;7.27;;;1.00;;
40453;SDS011;26160;51.858;4.398;2024-01-30T11:49:17;8.13;;;1.47;;
40453;SDS011;26160;51.858;4.398;2024-01-30T11:51:46;5.70;;;1.10;;
40453;SDS011;26160;51.858;4.398;2024-01-30T11:54:15;8.90;;;1.53;;
40453;SDS011;26160;51.858;4.398;2024-01-30T11:56:41;6.23;;;1.17;;
40453;SDS011;26160;51.858;4.398;2024-01-30T11:59:08;6.47;;;1.10;;
40453;SDS011;26160;51.858;4.398;2024-01-30T12:01:35;5.93;;;1.40;;
40453;SDS011;26160;51.858;4.398;2024-01-30T12:04:01;5.33;;;1.17;;
40453;SDS011;26160;51.858;4.398;2024-01-30T12:06:28;12.67;;;1.47;;
40453;SDS011;26160;51.858;4.398;2024-01-30T12:08:58;12.10;;;1.37;;
40453;SDS011;26160;51.858;4.398;2024-01-30T12:11:25;8.27;;;1.33;;
40453;SDS011;26160;51.858;4.398;2024-01-30T12:13:52;9.60;;;1.60;;
40453;SDS011;26160;51.858;4.398;2024-01-30T12:16:19;11.03;;;1.30;;
40453;SDS011;26160;51.858;4.398;2024-01-30T12:18:46;7.53;;;1.20;;
40453;SDS011;26160;51.858;4.398;2024-01-30T12:21:12;9.50;;;1.20;;
40453;SDS011;26160;51.858;4.398;2024-01-30T12:23:42;7.67;;;1.33;;
40453;SDS011;26160;51.858;4.398;2024-01-30T12:26:09;13.53;;;1.50;;
40453;SDS011;26160;51.858;4.398;2024-01-30T12:28:36;11.20;;;1.50;;
40453;SDS011;26160;51.858;4.398;2024-01-30T12:31:02;11.23;;;1.70;;
40453;SDS011;26160;51.858;4.398;2024-01-30T12:33:32;12.73;;;1.87;;
40453;SDS011;26160;51.858;4.398;2024-01-30T12:36:01;11.13;;;2.07;;
40453;SDS011;26160;51.858;4.398;2024-01-30T12:38:28;7.67;;;2.03;;
40453;SDS011;26160;51.858;4.398;2024-01-30T12:40:54;9.30;;;1.47;;
40453;SDS011;26160;51.858;4.398;2024-01-30T12:43:22;10.63;;;1.53;;
40453;SDS011;26160;51.858;4.398;2024-01-30T12:45:49;9.53;;;1.40;;
40453;SDS011;26160;51.858;4.398;2024-01-30T12:48:16;10.97;;;1.60;;
40453;SDS011;26160;51.858;4.398;2024-01-30T12:53:11;7.53;;;1.13;;
40453;SDS011;26160;51.858;4.398;2024-01-30T12:55:38;5.97;;;1.33;;
40453;SDS011;26160;51.858;4.398;2024-01-30T12:58:04;5.20;;;0.97;;
40453;SDS011;26160;51.858;4.398;2024-01-30T13:00:31;9.33;;;1.90;;
40453;SDS011;26160;51.858;4.398;2024-01-30T13:02:57;7.90;;;1.20;;
40453;SDS011;26160;51.858;4.398;2024-01-30T13:05:24;6.70;;;1.33;;
40453;SDS011;26160;51.858;4.398;2024-01-30T13:07:50;4.87;;;1.23;;
40453;SDS011;26160;51.858;4.398;2024-01-30T13:10:19;7.53;;;1.30;;
40453;SDS011;26160;51.858;4.398;2024-01-30T13:12:46;11.73;;;1.53;;
40453;SDS011;26160;51.858;4.398;2024-01-30T13:15:15;7.13;;;1.87;;
40453;SDS011;26160;51.858;4.398;2024-01-30T13:17:41;5.93;;;1.50;;
40453;SDS011;26160;51.858;4.398;2024-01-30T13:20:09;10.60;;;1.73;;
40453;SDS011;26160;51.858;4.398;2024-01-30T13:25:21;9.30;;;1.93;;
40453;SDS011;26160;51.858;4.398;2024-01-30T13:27:47;10.40;;;2.50;;
40453;SDS011;26160;51.858;4.398;2024-01-30T13:30:13;11.57;;;1.70;;
40453;SDS011;26160;51.858;4.398;2024-01-30T13:32:43;13.93;;;2.40;;
40453;SDS011;26160;51.858;4.398;2024-01-30T13:35:10;12.87;;;2.60;;
40453;SDS011;26160;51.858;4.398;2024-01-30T13:37:36;10.50;;;2.40;;
40453;SDS011;26160;51.858;4.398;2024-01-30T13:43:06;15.53;;;2.80;;
40453;SDS011;26160;51.858;4.398;2024-01-30T13:45:32;12.50;;;2.17;;
40453;SDS011;26160;51.858;4.398;2024-01-30T13:48:01;14.23;;;2.57;;
40453;SDS011;26160;51.858;4.398;2024-01-30T13:50:28;16.87;;;3.27;;
40453;SDS011;26160;51.858;4.398;2024-01-30T13:52:56;14.17;;;2.67;;
40453;SDS011;26160;51.858;4.398;2024-01-30T13:55:22;13.60;;;2.53;;
40453;SDS011;26160;51.858;4.398;2024-01-30T13:57:51;11.70;;;2.83;;
40453;SDS011;26160;51.858;4.398;2024-01-30T14:00:17;15.97;;;2.87;;
40453;SDS011;26160;51.858;4.398;2024-01-30T14:02:47;13.30;;;2.83;;
40453;SDS011;26160;51.858;4.398;2024-01-30T14:05:17;11.93;;;3.43;;
40453;SDS011;26160;51.858;4.398;2024-01-30T14:07:50;15.20;;;2.63;;
40453;SDS011;26160;51.858;4.398;2024-01-30T14:10:19;19.67;;;3.17;;
40453;SDS011;26160;51.858;4.398;2024-01-30T14:12:46;12.13;;;2.97;;
40453;SDS011;26160;51.858;4.398;2024-01-30T14:15:21;18.10;;;3.57;;
40453;SDS011;26160;51.858;4.398;2024-01-30T14:17:47;23.40;;;4.13;;
40453;SDS011;26160;51.858;4.398;2024-01-30T14:20:15;12.00;;;3.23;;
40453;SDS011;26160;51.858;4.398;2024-01-30T14:22:47;15.05;;;3.65;;
40453;SDS011;26160;51.858;4.398;2024-01-30T14:25:17;10.20;;;2.67;;
40453;SDS011;26160;51.858;4.398;2024-01-30T14:27:46;16.13;;;3.30;;
40453;SDS011;26160;51.858;4.398;2024-01-30T14:30:18;18.17;;;3.35;;
40453;SDS011;26160;51.858;4.398;2024-01-30T14:32:50;11.23;;;3.43;;
40453;SDS011;26160;51.858;4.398;2024-01-30T14:35:19;17.50;;;4.95;;
40453;SDS011;26160;51.858;4.398;2024-01-30T14:38:13;12.77;;;4.03;;
40453;SDS011;26160;51.858;4.398;2024-01-30T14:43:41;10.10;;;3.40;;
40453;SDS011;26160;51.858;4.398;2024-01-30T14:48:47;11.07;;;3.50;;
40453;SDS011;26160;51.858;4.398;2024-01-30T14:51:33;12.53;;;3.77;;
40453;SDS011;26160;51.858;4.398;2024-01-30T14:54:00;13.70;;;4.27;;
40453;SDS011;26160;51.858;4.398;2024-01-30T14:56:34;10.47;;;3.97;;
40453;SDS011;26160;51.858;4.398;2024-01-30T14:59:13;11.53;;;4.23;;
40453;SDS011;26160;51.858;4.398;2024-01-30T15:01:58;14.47;;;3.73;;
40453;SDS011;26160;51.858;4.398;2024-01-30T15:04:25;12.77;;;3.63;;
40453;SDS011;26160;51.858;4.398;2024-01-30T15:07:08;10.37;;;3.47;;
40453;SDS011;26160;51.858;4.398;2024-01-30T15:12:28;10.33;;;3.60;;
40453;SDS011;26160;51.858;4.398;2024-01-30T15:14:57;12.53;;;3.60;;
40453;SDS011;26160;51.858;4.398;2024-01-30T15:23:05;9.90;;;4.07;;
40453;SDS011;26160;51.858;4.398;2024-01-30T15:28:33;10.70;;;4.27;;
40453;SDS011;26160;51.858;4.398;2024-01-30T15:44:22;16.57;;;6.73;;
40453;SDS011;26160;51.858;4.398;2024-01-30T15:50:40;14.67;;;5.40;;
40453;SDS011;26160;51.858;4.398;2024-01-30T15:59:29;17.00;;;5.57;;
40453;SDS011;26160;51.858;4.398;2024-01-30T16:02:08;15.77;;;6.17;;
40453;SDS011;26160;51.858;4.398;2024-01-30T16:04:41;14.57;;;6.00;;
40453;SDS011;26160;51.858;4.398;2024-01-30T16:07:31;11.20;;;6.37;;
40453;SDS011;26160;51.858;4.398;2024-01-30T16:09:58;11.07;;;5.57;;
40453;SDS011;26160;51.858;4.398;2024-01-30T16:12:24;8.27;;;5.03;;
40453;SDS011;26160;51.858;4.398;2024-01-30T16:14:54;11.40;;;5.63;;
40453;SDS011;26160;51.858;4.398;2024-01-30T16:17:20;11.87;;;6.03;;
40453;SDS011;26160;51.858;4.398;2024-01-30T16:22:26;14.33;;;6.90;;
40453;SDS011;26160;51.858;4.398;2024-01-30T16:25:15;10.50;;;6.07;;
40453;SDS011;26160;51.858;4.398;2024-01-30T16:27:43;11.73;;;6.50;;
40453;SDS011;26160;51.858;4.398;2024-01-30T16:30:11;16.47;;;8.63;;
40453;SDS011;26160;51.858;4.398;2024-01-30T16:32:37;10.73;;;7.33;;
40453;SDS011;26160;51.858;4.398;2024-01-30T16:35:03;13.53;;;7.27;;
40453;SDS011;26160;51.858;4.398;2024-01-30T16:37:30;12.93;;;7.10;;
40453;SDS011;26160;51.858;4.398;2024-01-30T16:39:56;15.53;;;7.60;;
40453;SDS011;26160;51.858;4.398;2024-01-30T16:42:23;9.80;;;6.30;;
40453;SDS011;26160;51.858;4.398;2024-01-30T16:44:49;10.77;;;6.50;;
40453;SDS011;26160;51.858;4.398;2024-01-30T16:47:15;8.67;;;5.90;;
40453;SDS011;26160;51.858;4.398;2024-01-30T16:49:42;10.90;;;5.93;;
40453;SDS011;26160;51.858;4.398;2024-01-30T16:52:08;15.50;;;7.40;;
40453;SDS011;26160;51.858;4.398;2024-01-30T16:54:34;12.70;;;6.57;;
40453;SDS011;26160;51.858;4.398;2024-01-30T16:57:00;9.13;;;6.10;;
40453;SDS011;26160;51.858;4.398;2024-01-30T16:59:27;10.47;;;5.90;;
40453;SDS011;26160;51.858;4.398;2024-01-30T17:01:53;10.23;;;6.00;;
40453;SDS011;26160;51.858;4.398;2024-01-30T17:04:19;9.57;;;5.90;;
40453;SDS011;26160;51.858;4.398;2024-01-30T17:06:48;10.67;;;5.77;;
40453;SDS011;26160;51.858;4.398;2024-01-30T17:09:14;14.17;;;6.73;;